createdAt,value
2019-03-22T10:34:18.455Z,98789.11
2019-03-22T10:36:49.528Z,98797.59
2019-03-22T10:39:19.979Z,98790.77
2019-03-22T10:41:50.521Z,98791.54
2019-03-22T10:44:21.138Z,98792.37
2019-03-22T10:46:51.675Z,98792.37
2019-03-22T10:49:22.536Z,98790.96
2019-03-22T10:51:57.427Z,98787.92
2019-03-22T10:54:24.749Z,98788.78
2019-03-22T10:59:31.987Z,98771.84
2019-03-22T11:02:04.006Z,98771.84
2019-03-22T11:04:45.895Z,98777.06
2019-03-22T11:07:19.333Z,98777.06
2019-03-22T11:09:49.512Z,98771.09
2019-03-22T11:12:19.777Z,98773.23
2019-03-22T11:14:53.819Z,98774.66
2019-03-22T11:17:24.659Z,98764.38
2019-03-22T11:19:57.473Z,98766.45
2019-03-22T11:22:29.174Z,98766.45
2019-03-22T11:25:00.182Z,98756.34
2019-03-22T11:27:32.978Z,98759.46
2019-03-22T11:30:03.309Z,98754.11
2019-03-22T11:32:33.638Z,98743.54
2019-03-22T11:35:03.934Z,98743.54
2019-03-22T11:37:36.607Z,98746.27
2019-03-22T11:40:08.734Z,98738.56
2019-03-22T11:42:39.142Z,98732.31
2019-03-22T11:45:12.517Z,98731.54
2019-03-22T11:47:43.930Z,98729.11
2019-03-22T11:50:14.317Z,98719.63
2019-03-22T11:52:44.780Z,98713.69
2019-03-22T11:55:15.308Z,98710.48
2019-03-22T11:57:47.921Z,98710.48
2019-03-22T12:00:21.320Z,98710.28
2019-03-22T12:02:51.569Z,98709.38
2019-03-22T12:05:22.749Z,98699.98
2019-03-22T12:07:53.123Z,98696.19
2019-03-22T12:10:23.520Z,98691.67
2019-03-22T12:12:55.972Z,98686.67
2019-03-22T12:15:26.414Z,98686.67
2019-03-22T12:17:57.977Z,98688.05
2019-03-22T12:20:28.141Z,98677.64
2019-03-22T12:22:58.326Z,98679.52
2019-03-22T12:25:28.822Z,98668.20
2019-03-22T12:27:59.886Z,98666.05
2019-03-22T12:30:30.557Z,98662.88
2019-03-22T12:33:00.524Z,98659.09
2019-03-22T12:35:32.330Z,98655.77
2019-03-22T12:38:02.732Z,98655.77
2019-03-22T12:40:33.132Z,98652.67
2019-03-22T12:43:03.675Z,98644.80
2019-03-22T12:45:34.010Z,98644.80
2019-03-22T12:48:04.751Z,98636.95
2019-03-22T12:50:36.106Z,98632.31
2019-03-22T12:53:07.772Z,98632.31
2019-03-22T12:55:38.004Z,98624.97
2019-03-22T12:58:08.677Z,98623.03
2019-03-22T13:00:39.308Z,98613.94
2019-03-22T13:03:18.518Z,98615.30
2019-03-22T13:05:49.276Z,98615.30
2019-03-22T13:08:20.581Z,98598.39
2019-03-22T13:10:52.450Z,98598.39
2019-03-22T13:13:24.287Z,98597.16
2019-03-22T13:15:55.527Z,98590.75
2019-03-22T13:18:26.135Z,98593.05
2019-03-22T13:20:59.027Z,98591.25
2019-03-22T13:23:33.147Z,98580.63
2019-03-22T13:26:04.797Z,98580.00
2019-03-22T13:28:36.834Z,98580.00
2019-03-22T13:31:13.064Z,98577.28
2019-03-22T13:33:46.369Z,98573.55
2019-03-22T13:36:17.129Z,98573.55
2019-03-22T13:38:47.388Z,98570.72
2019-03-22T13:41:19.483Z,98567.08
2019-03-22T13:43:50.424Z,98574.52
2019-03-22T13:46:21.194Z,98561.95
2019-03-22T13:48:52.242Z,98560.00
2019-03-22T13:51:22.693Z,98555.33
2019-03-22T13:53:53.205Z,98558.42
2019-03-22T13:56:23.433Z,98552.47
2019-03-22T13:58:54.474Z,98552.47
2019-03-22T14:01:30.247Z,98552.61
2019-03-22T14:03:58.506Z,98552.61
2019-03-22T14:12:40.354Z,98532.75
2019-03-22T14:15:10.617Z,98532.75
2019-03-22T14:17:40.736Z,98532.75
2019-03-22T14:20:12.977Z,98528.16
2019-03-22T14:22:49.023Z,98533.65
2019-03-22T14:25:20.512Z,98535.17
2019-03-22T14:27:51.095Z,98521.58
2019-03-22T14:30:35.050Z,98521.58
2019-03-22T14:33:16.044Z,98513.53
2019-03-22T14:35:48.450Z,98513.53
2019-03-22T14:38:19.094Z,98511.23
2019-03-22T14:40:52.013Z,98511.23
2019-03-22T14:43:23.006Z,98506.47
2019-03-22T14:45:53.176Z,98504.95
2019-03-22T14:48:23.346Z,98504.95
2019-03-22T14:50:53.897Z,98502.41
2019-03-22T14:53:24.413Z,98502.41
2019-03-22T14:55:59.536Z,98500.02
2019-03-22T14:58:30.316Z,98500.02
2019-03-22T15:01:03.450Z,98490.17
2019-03-22T15:03:33.725Z,98481.73
2019-03-22T15:06:03.993Z,98480.70
2019-03-22T15:08:34.662Z,98482.69
2019-03-22T15:11:04.998Z,98482.02
2019-03-22T15:14:11.507Z,98482.02
2019-03-22T15:17:14.825Z,98470.48
2019-03-22T15:20:16.178Z,98470.48
2019-03-22T15:23:05.392Z,98477.28
2019-03-22T15:26:06.555Z,98466.88
2019-03-22T15:29:05.963Z,98474.52
2019-03-22T15:31:57.934Z,98471.16
2019-03-22T15:34:49.895Z,98470.09
2019-03-22T15:37:37.128Z,98463.63
2019-03-22T15:40:08.447Z,98463.63
2019-03-22T15:42:38.512Z,98456.78
2019-03-22T15:45:10.492Z,98456.78
2019-03-22T15:47:44.943Z,98453.41
2019-03-22T15:50:17.892Z,98453.73
2019-03-22T15:52:47.856Z,98453.73
2019-03-22T15:55:18.580Z,98452.38
2019-03-22T15:57:49.137Z,98446.41
2019-03-22T16:00:21.139Z,98449.10
2019-03-22T16:02:53.709Z,98455.11
2019-03-22T16:05:24.099Z,98455.11
2019-03-22T16:07:54.411Z,98453.92
2019-03-22T16:10:25.065Z,98445.24
2019-03-22T16:12:55.330Z,98441.17
2019-03-22T16:15:25.591Z,98441.17
2019-03-22T16:17:55.689Z,98440.86
2019-03-22T16:20:26.847Z,98442.51
2019-03-22T16:22:56.954Z,98442.51
2019-03-22T16:25:27.134Z,98444.70
2019-03-22T16:27:57.556Z,98440.47
2019-03-22T16:30:27.996Z,98438.56
2019-03-22T16:32:58.244Z,98440.73
2019-03-22T16:35:28.596Z,98444.23
2019-03-22T16:38:04.057Z,98443.42
2019-03-22T16:40:34.253Z,98438.33
2019-03-22T16:43:07.407Z,98438.33
2019-03-22T16:45:44.362Z,98442.55
2019-03-22T16:48:16.134Z,98438.64
2019-03-22T16:50:48.419Z,98441.59
2019-03-22T16:53:19.460Z,98435.83
2019-03-22T16:55:50.652Z,98450.75
2019-03-22T16:58:20.862Z,98444.91
2019-03-22T17:00:56.399Z,98444.91
2019-03-22T17:03:26.342Z,98443.57
2019-03-22T17:05:57.735Z,98441.31
2019-03-22T17:08:28.145Z,98441.31
2019-03-22T17:10:58.138Z,98439.53
2019-03-22T17:13:28.478Z,98440.23
2019-03-22T17:15:58.595Z,98444.02
2019-03-22T17:18:28.630Z,98444.02
2019-03-22T17:20:58.965Z,98445.69
2019-03-22T17:23:29.065Z,98445.83
2019-03-22T17:25:59.544Z,98445.83
2019-03-22T17:28:29.781Z,98434.53
2019-03-22T17:31:01.742Z,98430.44
2019-03-22T17:33:34.455Z,98430.44
2019-03-22T17:36:04.442Z,98436.59
2019-03-22T17:38:34.574Z,98436.92
2019-03-22T17:41:05.127Z,98436.06
2019-03-22T17:43:35.178Z,98434.70
2019-03-22T17:46:05.204Z,98440.24
2019-03-22T17:48:35.202Z,98444.19
2019-03-22T17:51:05.743Z,98444.19
2019-03-22T17:53:39.460Z,98443.07
2019-03-22T17:56:11.743Z,98453.95
2019-03-22T17:58:45.253Z,98453.31
2019-03-22T18:01:15.544Z,98445.84
2019-03-22T18:03:50.837Z,98455.46
2019-03-22T18:06:25.335Z,98454.59
2019-03-22T18:08:56.017Z,98454.59
2019-03-22T18:11:30.002Z,98452.45
2019-03-22T18:14:00.351Z,98454.98
2019-03-22T18:16:31.421Z,98454.98
2019-03-22T18:19:01.617Z,98452.71
2019-03-22T18:21:32.518Z,98464.00
2019-03-22T18:24:03.786Z,98455.70
2019-03-22T18:26:34.098Z,98455.70
2019-03-22T18:29:07.281Z,98466.38
2019-03-22T18:31:38.243Z,98466.38
2019-03-22T18:34:09.229Z,98463.13
2019-03-22T18:36:39.516Z,98467.69
2019-03-22T18:39:24.233Z,98474.47
2019-03-22T18:41:42.347Z,98466.41
2019-03-22T18:44:12.586Z,98466.41
2019-03-22T18:46:43.165Z,98479.70
2019-03-22T18:49:15.256Z,98480.14
2019-03-22T18:51:46.101Z,98483.09
2019-03-22T18:54:23.743Z,98486.19
2019-03-22T18:56:55.456Z,98486.47
2019-03-22T18:59:27.201Z,98481.82
2019-03-22T19:01:57.452Z,98483.56
2019-03-22T19:04:30.578Z,98483.56
2019-03-22T19:07:01.963Z,98488.98
2019-03-22T19:09:31.993Z,98492.06
2019-03-22T19:12:01.955Z,98489.55
2019-03-22T19:14:32.045Z,98489.55
2019-03-22T19:17:03.251Z,98489.16
2019-03-22T19:19:33.800Z,98489.16
2019-03-22T19:22:03.778Z,98490.30
2019-03-22T19:24:34.166Z,98486.98
2019-03-22T19:27:04.649Z,98486.76
2019-03-22T19:29:35.451Z,98480.40
2019-03-22T19:32:13.399Z,98482.84
2019-03-22T19:34:37.209Z,98479.69
2019-03-22T19:37:07.315Z,98479.69
2019-03-22T19:39:37.322Z,98480.88
2019-03-22T19:42:07.376Z,98480.88
2019-03-22T19:44:38.157Z,98481.38
2019-03-22T19:47:08.616Z,98481.38
2019-03-22T19:49:38.916Z,98480.26
2019-03-22T19:52:08.971Z,98475.11
2019-03-22T19:54:39.222Z,98475.11
2019-03-22T19:57:09.154Z,98477.59
2019-03-22T19:59:39.878Z,98486.13
2019-03-22T20:02:10.577Z,98481.87
2019-03-22T20:04:40.453Z,98481.87
2019-03-22T20:07:10.699Z,98482.59
2019-03-22T20:09:40.779Z,98482.59
2019-03-22T20:12:11.006Z,98485.63
2019-03-22T20:14:42.074Z,98482.09
2019-03-22T20:17:15.372Z,98482.09
2019-03-22T20:19:46.329Z,98492.36
2019-03-22T20:22:21.477Z,98488.42
2019-03-22T20:24:51.609Z,98490.88
2019-03-22T20:27:23.508Z,98486.97
2019-03-22T20:29:54.897Z,98486.97
2019-03-22T20:32:25.296Z,98484.26
2019-03-22T20:35:01.730Z,98484.26
2019-03-22T20:37:31.949Z,98482.31
2019-03-22T20:40:02.684Z,98483.28
2019-03-22T20:42:32.978Z,98476.80
2019-03-22T20:45:03.385Z,98482.17
2019-03-22T20:47:33.667Z,98481.66
2019-03-22T20:50:04.348Z,98481.66
2019-03-22T20:52:34.965Z,98477.14
2019-03-22T20:55:08.834Z,98476.28
2019-03-22T20:57:39.089Z,98476.28
2019-03-22T21:00:17.093Z,98476.17
2019-03-22T21:02:47.640Z,98480.65
2019-03-22T21:05:26.467Z,98483.11
2019-03-22T21:07:52.121Z,98484.90
2019-03-22T21:10:22.828Z,98484.52
2019-03-22T21:12:53.053Z,98488.55
2019-03-22T21:15:24.889Z,98474.25
2019-03-22T21:17:55.757Z,98474.25
2019-03-22T21:20:26.642Z,98473.03
2019-03-22T21:23:01.371Z,98477.38
2019-03-22T21:25:28.721Z,98477.38
2019-03-22T21:28:10.837Z,98474.47
2019-03-22T21:30:44.085Z,98469.33
2019-03-22T21:33:14.421Z,98468.80
2019-03-22T21:35:45.081Z,98470.52
2019-03-22T21:38:16.704Z,98468.94
2019-03-22T21:40:46.916Z,98468.94
2019-03-22T21:43:17.231Z,98465.47
2019-03-22T21:45:47.746Z,98463.92
2019-03-22T21:48:18.603Z,98469.43
2019-03-22T21:50:49.159Z,98465.41
2019-03-22T21:53:20.149Z,98465.41
2019-03-22T21:55:50.380Z,98467.67
2019-03-22T21:58:22.413Z,98467.67
2019-03-22T22:00:52.384Z,98464.81
2019-03-22T22:03:22.621Z,98464.81
2019-03-22T22:05:52.852Z,98469.08
2019-03-22T22:08:23.937Z,98466.34
2019-03-22T22:10:59.614Z,98466.34
2019-03-22T22:13:27.798Z,98461.82
2019-03-22T22:15:58.284Z,98461.82
2019-03-22T22:18:29.326Z,98458.39
2019-03-22T22:21:00.121Z,98463.86
2019-03-22T22:23:31.109Z,98464.42
2019-03-22T22:26:01.638Z,98457.45
2019-03-22T22:28:31.878Z,98461.96
2019-03-22T22:31:02.081Z,98450.46
2019-03-22T22:33:32.398Z,98450.70
2019-03-22T22:36:04.137Z,98450.70
2019-03-22T22:41:02.499Z,98452.61
2019-03-22T22:43:32.965Z,98452.61
2019-03-22T22:46:03.221Z,98456.85
2019-03-22T22:48:33.429Z,98450.54
2019-03-22T22:51:03.881Z,98448.16
2019-03-22T22:53:34.265Z,98448.16
2019-03-22T22:56:05.107Z,98451.42
2019-03-22T22:58:35.496Z,98445.77
2019-03-22T23:01:05.888Z,98439.04
2019-03-22T23:03:36.161Z,98439.04
2019-03-22T23:06:09.728Z,98440.86
2019-03-22T23:08:38.498Z,98446.25
2019-03-22T23:11:08.747Z,98446.39
2019-03-22T23:13:39.014Z,98446.73
2019-03-22T23:16:09.328Z,98444.91
2019-03-22T23:18:39.653Z,98443.09
2019-03-22T23:21:10.262Z,98443.09
2019-03-22T23:23:40.965Z,98445.53
2019-03-22T23:26:11.253Z,98445.53
2019-03-22T23:28:41.573Z,98445.87
2019-03-22T23:31:11.883Z,98450.16
2019-03-22T23:33:42.520Z,98449.30
2019-03-22T23:36:20.281Z,98444.53
2019-03-22T23:38:44.700Z,98447.11
2019-03-22T23:41:15.001Z,98451.50
2019-03-22T23:43:45.287Z,98444.98
2019-03-22T23:46:15.756Z,98451.23
2019-03-22T23:48:46.011Z,98444.61
2019-03-22T23:51:16.562Z,98444.61
2019-03-22T23:53:49.110Z,98441.05
2019-03-22T23:56:19.467Z,98440.94
2019-03-22T23:58:49.765Z,98440.94
